sensor_id;sensor_type;location;lat;lon;timestamp;pressure;altitude;pressure_sealevel;temperature;humidity
6435;BME280;3250;42.694;23.278;2023-01-27T00:01:41;93981.03;;;1.40;92.50
6435;BME280;3250;42.694;23.278;2023-01-27T00:04:07;93988.38;;;1.51;92.36
6435;BME280;3250;42.694;23.278;2023-01-27T00:06:32;93996.25;;;1.58;92.48
6435;BME280;3250;42.694;23.278;2023-01-27T00:08:58;93997.88;;;1.59;92.38
6435;BME280;3250;42.694;23.278;2023-01-27T00:11:23;93986.34;;;1.62;91.47
6435;BME280;3250;42.694;23.278;2023-01-27T00:14:07;93980.19;;;1.63;91.63
6435;BME280;3250;42.694;23.278;2023-01-27T00:16:32;93988.38;;;1.66;91.43
6435;BME280;3250;42.694;23.278;2023-01-27T00:18:58;93982.78;;;1.63;91.83
6435;BME280;3250;42.694;23.278;2023-01-27T00:21:23;93975.41;;;1.66;91.90
6435;BME280;3250;42.694;23.278;2023-01-27T00:24:13;93949.66;;;1.65;92.20
6435;BME280;3250;42.694;23.278;2023-01-27T00:26:57;93954.16;;;1.71;91.90
6435;BME280;3250;42.694;23.278;2023-01-27T00:29:22;93954.16;;;1.71;92.04
6435;BME280;3250;42.694;23.278;2023-01-27T00:31:48;93960.50;;;1.68;92.34
6435;BME280;3250;42.694;23.278;2023-01-27T00:34:32;93949.22;;;1.61;92.29
6435;BME280;3250;42.694;23.278;2023-01-27T00:36:57;93958.44;;;1.64;92.09
6435;BME280;3250;42.694;23.278;2023-01-27T00:39:22;93962.47;;;1.66;91.79
6435;BME280;3250;42.694;23.278;2023-01-27T00:41:48;93963.44;;;1.65;91.69
6435;BME280;3250;42.694;23.278;2023-01-27T00:44:13;93953.25;;;1.64;92.21
6435;BME280;3250;42.694;23.278;2023-01-27T00:46:42;93940.09;;;1.65;91.96
6435;BME280;3250;42.694;23.278;2023-01-27T00:49:08;93961.84;;;1.64;92.77
6435;BME280;3250;42.694;23.278;2023-01-27T00:51:35;93979.81;;;1.66;92.36
6435;BME280;3250;42.694;23.278;2023-01-27T00:54:01;93967.28;;;1.69;91.95
6435;BME280;3250;42.694;23.278;2023-01-27T00:56:27;93962.75;;;1.71;91.74
6435;BME280;3250;42.694;23.278;2023-01-27T00:58:53;93958.78;;;1.75;91.74
6435;BME280;3250;42.694;23.278;2023-01-27T01:01:18;93963.63;;;1.78;91.77
6435;BME280;3250;42.694;23.278;2023-01-27T01:03:44;93959.25;;;1.79;91.31
6435;BME280;3250;42.694;23.278;2023-01-27T01:06:12;93957.47;;;1.79;91.30
6435;BME280;3250;42.694;23.278;2023-01-27T01:08:38;93951.91;;;1.82;91.66
6435;BME280;3250;42.694;23.278;2023-01-27T01:11:05;93945.91;;;1.82;92.01
6435;BME280;3250;42.694;23.278;2023-01-27T01:13:31;93963.88;;;1.83;91.38
6435;BME280;3250;42.694;23.278;2023-01-27T01:15:57;93956.19;;;1.75;91.33
6435;BME280;3250;42.694;23.278;2023-01-27T01:18:28;93956.56;;;1.72;91.39
6435;BME280;3250;42.694;23.278;2023-01-27T01:20:53;93964.34;;;1.72;90.89
6435;BME280;3250;42.694;23.278;2023-01-27T01:23:18;93959.34;;;1.71;91.35
6435;BME280;3250;42.694;23.278;2023-01-27T01:25:54;93968.19;;;1.76;91.51
6435;BME280;3250;42.694;23.278;2023-01-27T01:28:20;93947.78;;;1.73;91.55
6435;BME280;3250;42.694;23.278;2023-01-27T01:30:46;93948.25;;;1.77;91.33
6435;BME280;3250;42.694;23.278;2023-01-27T01:33:12;93952.97;;;1.73;92.16
6435;BME280;3250;42.694;23.278;2023-01-27T01:35:38;93971.06;;;1.81;91.41
6435;BME280;3250;42.694;23.278;2023-01-27T01:38:04;93972.22;;;1.79;91.80
6435;BME280;3250;42.694;23.278;2023-01-27T01:40:29;93968.53;;;1.73;91.77
6435;BME280;3250;42.694;23.278;2023-01-27T01:42:57;93976.44;;;1.80;91.87
6435;BME280;3250;42.694;23.278;2023-01-27T01:53:36;93967.56;;;1.74;91.87
6435;BME280;3250;42.694;23.278;2023-01-27T01:56:07;93970.78;;;1.76;91.62
6435;BME280;3250;42.694;23.278;2023-01-27T01:58:35;93952.00;;;1.74;92.17
6435;BME280;3250;42.694;23.278;2023-01-27T02:01:03;93956.47;;;1.80;92.07
6435;BME280;3250;42.694;23.278;2023-01-27T02:03:31;93945.81;;;1.75;92.17
6435;BME280;3250;42.694;23.278;2023-01-27T02:05:57;93948.31;;;1.83;91.72
6435;BME280;3250;42.694;23.278;2023-01-27T02:08:33;93936.09;;;1.77;92.36
6435;BME280;3250;42.694;23.278;2023-01-27T02:11:00;93932.94;;;1.82;92.16
6435;BME280;3250;42.694;23.278;2023-01-27T02:13:25;93922.38;;;1.83;91.49
6435;BME280;3250;42.694;23.278;2023-01-27T02:15:52;93918.38;;;1.81;90.94
6435;BME280;3250;42.694;23.278;2023-01-27T02:18:19;93918.81;;;1.84;90.84
6435;BME280;3250;42.694;23.278;2023-01-27T02:20:52;93912.81;;;1.84;90.68
6435;BME280;3250;42.694;23.278;2023-01-27T02:29:18;93892.84;;;1.84;91.31
6435;BME280;3250;42.694;23.278;2023-01-27T02:31:43;93896.00;;;1.80;91.16
6435;BME280;3250;42.694;23.278;2023-01-27T02:34:12;93896.19;;;1.78;92.09
6435;BME280;3250;42.694;23.278;2023-01-27T02:36:52;93905.59;;;1.79;91.84
6435;BME280;3250;42.694;23.278;2023-01-27T02:39:21;93901.38;;;1.78;91.56
6435;BME280;3250;42.694;23.278;2023-01-27T02:41:53;93901.81;;;1.82;91.69
6435;BME280;3250;42.694;23.278;2023-01-27T02:44:20;93894.81;;;1.82;91.34
6435;BME280;3250;42.694;23.278;2023-01-27T02:46:45;93897.25;;;1.84;91.41
6435;BME280;3250;42.694;23.278;2023-01-27T02:49:11;93902.44;;;1.84;91.74
6435;BME280;3250;42.694;23.278;2023-01-27T02:51:37;93909.88;;;1.87;91.53
6435;BME280;3250;42.694;23.278;2023-01-27T02:54:03;93911.31;;;1.89;91.63
6435;BME280;3250;42.694;23.278;2023-01-27T02:56:29;93914.00;;;1.81;91.52
6435;BME280;3250;42.694;23.278;2023-01-27T02:58:54;93906.56;;;1.78;91.49
6435;BME280;3250;42.694;23.278;2023-01-27T03:01:20;93913.09;;;1.74;91.94
6435;BME280;3250;42.694;23.278;2023-01-27T03:03:47;93915.34;;;1.63;92.34
6435;BME280;3250;42.694;23.278;2023-01-27T03:06:13;93900.59;;;1.63;92.66
6435;BME280;3250;42.694;23.278;2023-01-27T03:08:39;93898.25;;;1.68;92.42
6435;BME280;3250;42.694;23.278;2023-01-27T03:11:05;93888.84;;;1.67;92.18
6435;BME280;3250;42.694;23.278;2023-01-27T03:13:30;93899.75;;;1.77;91.88
6435;BME280;3250;42.694;23.278;2023-01-27T03:16:00;93892.09;;;1.69;92.36
6435;BME280;3250;42.694;23.278;2023-01-27T03:18:44;93887.03;;;1.82;92.26
6435;BME280;3250;42.694;23.278;2023-01-27T03:21:11;93888.41;;;1.78;91.77
6435;BME280;3250;42.694;23.278;2023-01-27T03:23:37;93874.81;;;1.76;92.29
6435;BME280;3250;42.694;23.278;2023-01-27T03:26:06;93875.84;;;1.82;92.48
6435;BME280;3250;42.694;23.278;2023-01-27T03:28:31;93869.50;;;1.84;92.04
6435;BME280;3250;42.694;23.278;2023-01-27T03:31:01;93871.13;;;1.85;92.22
6435;BME280;3250;42.694;23.278;2023-01-27T03:33:27;93873.53;;;1.87;92.07
6435;BME280;3250;42.694;23.278;2023-01-27T03:35:53;93856.19;;;1.87;91.90
6435;BME280;3250;42.694;23.278;2023-01-27T03:38:37;93857.41;;;1.92;92.08
6435;BME280;3250;42.694;23.278;2023-01-27T03:41:21;93864.59;;;1.89;92.04
6435;BME280;3250;42.694;23.278;2023-01-27T03:44:05;93851.00;;;1.87;91.88
6435;BME280;3250;42.694;23.278;2023-01-27T03:46:48;93834.34;;;1.82;92.56
6435;BME280;3250;42.694;23.278;2023-01-27T03:49:14;93842.94;;;1.82;92.83
6435;BME280;3250;42.694;23.278;2023-01-27T03:51:39;93838.50;;;1.76;93.20
6435;BME280;3250;42.694;23.278;2023-01-27T03:54:05;93842.53;;;1.79;92.62
6435;BME280;3250;42.694;23.278;2023-01-27T03:56:30;93840.91;;;1.78;92.63
6435;BME280;3250;42.694;23.278;2023-01-27T03:58:55;93838.13;;;1.79;92.71
6435;BME280;3250;42.694;23.278;2023-01-27T04:01:22;93836.53;;;1.78;92.27
6435;BME280;3250;42.694;23.278;2023-01-27T04:03:49;93828.84;;;1.70;92.51
6435;BME280;3250;42.694;23.278;2023-01-27T04:06:36;93843.69;;;1.76;92.66
6435;BME280;3250;42.694;23.278;2023-01-27T04:09:32;93854.97;;;1.69;92.54
6435;BME280;3250;42.694;23.278;2023-01-27T04:11:59;93860.06;;;1.77;92.76
6435;BME280;3250;42.694;23.278;2023-01-27T04:14:28;93878.84;;;1.79;91.74
6435;BME280;3250;42.694;23.278;2023-01-27T04:17:03;93898.88;;;1.70;92.49
6435;BME280;3250;42.694;23.278;2023-01-27T04:19:29;93906.94;;;1.61;92.43
6435;BME280;3250;42.694;23.278;2023-01-27T04:21:56;93916.56;;;1.67;92.49
6435;BME280;3250;42.694;23.278;2023-01-27T04:24:22;93903.09;;;1.71;92.75
6435;BME280;3250;42.694;23.278;2023-01-27T04:26:58;93907.66;;;1.69;92.33
6435;BME280;3250;42.694;23.278;2023-01-27T04:29:27;93911.47;;;1.73;93.15
6435;BME280;3250;42.694;23.278;2023-01-27T04:31:53;93924.19;;;1.68;92.85
6435;BME280;3250;42.694;23.278;2023-01-27T04:34:19;93922.94;;;1.64;93.10
6435;BME280;3250;42.694;23.278;2023-01-27T04:36:44;93925.72;;;1.63;93.37
6435;BME280;3250;42.694;23.278;2023-01-27T04:39:11;93928.13;;;1.64;93.49
6435;BME280;3250;42.694;23.278;2023-01-27T04:41:37;93920.97;;;1.66;93.43
6435;BME280;3250;42.694;23.278;2023-01-27T04:44:05;93925.63;;;1.71;93.96
6435;BME280;3250;42.694;23.278;2023-01-27T04:46:31;93933.13;;;1.80;93.24
6435;BME280;3250;42.694;23.278;2023-01-27T04:48:57;93933.03;;;1.88;93.88
6435;BME280;3250;42.694;23.278;2023-01-27T04:51:22;93916.50;;;1.89;93.13
6435;BME280;3250;42.694;23.278;2023-01-27T04:53:48;93908.31;;;1.93;93.55
6435;BME280;3250;42.694;23.278;2023-01-27T04:56:26;93930.78;;;1.85;92.97
6435;BME280;3250;42.694;23.278;2023-01-27T04:58:52;93943.13;;;1.83;93.07
6435;BME280;3250;42.694;23.278;2023-01-27T05:01:18;93949.03;;;1.77;93.50
6435;BME280;3250;42.694;23.278;2023-01-27T05:03:44;93931.13;;;1.82;93.94
6435;BME280;3250;42.694;23.278;2023-01-27T05:06:10;93935.00;;;1.86;93.52
6435;BME280;3250;42.694;23.278;2023-01-27T05:08:36;93933.63;;;1.90;93.82
6435;BME280;3250;42.694;23.278;2023-01-27T05:11:01;93930.78;;;1.85;93.99
6435;BME280;3250;42.694;23.278;2023-01-27T05:13:27;93934.25;;;1.93;93.90
6435;BME280;3250;42.694;23.278;2023-01-27T05:16:03;93939.81;;;2.04;93.12
6435;BME280;3250;42.694;23.278;2023-01-27T05:18:29;93927.88;;;2.10;92.89
6435;BME280;3250;42.694;23.278;2023-01-27T05:20:57;93926.09;;;2.10;92.77
6435;BME280;3250;42.694;23.278;2023-01-27T05:23:24;93927.53;;;2.13;92.16
6435;BME280;3250;42.694;23.278;2023-01-27T05:28:31;93923.31;;;2.12;91.93
6435;BME280;3250;42.694;23.278;2023-01-27T05:31:08;93915.19;;;2.15;92.00
6435;BME280;3250;42.694;23.278;2023-01-27T05:33:34;93917.50;;;2.10;91.87
6435;BME280;3250;42.694;23.278;2023-01-27T05:36:01;93904.09;;;2.06;92.08
6435;BME280;3250;42.694;23.278;2023-01-27T05:38:27;93901.69;;;2.05;91.70
6435;BME280;3250;42.694;23.278;2023-01-27T05:40:57;93912.31;;;2.10;92.13
6435;BME280;3250;42.694;23.278;2023-01-27T05:43:24;93899.72;;;2.07;91.94
6435;BME280;3250;42.694;23.278;2023-01-27T05:45:50;93894.72;;;2.05;91.87
6435;BME280;3250;42.694;23.278;2023-01-27T05:48:15;93900.88;;;2.04;92.17
6435;BME280;3250;42.694;23.278;2023-01-27T05:50:40;93896.06;;;2.01;91.85
6435;BME280;3250;42.694;23.278;2023-01-27T05:53:06;93901.31;;;2.08;91.97
6435;BME280;3250;42.694;23.278;2023-01-27T05:55:31;93904.97;;;2.13;91.86
6435;BME280;3250;42.694;23.278;2023-01-27T05:57:57;93910.69;;;2.09;91.13
6435;BME280;3250;42.694;23.278;2023-01-27T06:00:22;93911.91;;;2.06;92.09
6435;BME280;3250;42.694;23.278;2023-01-27T06:02:48;93921.88;;;2.09;91.53
6435;BME280;3250;42.694;23.278;2023-01-27T06:05:13;93922.88;;;2.08;91.76
6435;BME280;3250;42.694;23.278;2023-01-27T06:07:38;93929.69;;;2.09;91.67
6435;BME280;3250;42.694;23.278;2023-01-27T06:10:04;93919.13;;;2.11;91.63
6435;BME280;3250;42.694;23.278;2023-01-27T06:12:30;93911.16;;;2.12;90.63
6435;BME280;3250;42.694;23.278;2023-01-27T06:14:55;93904.91;;;2.07;90.68
6435;BME280;3250;42.694;23.278;2023-01-27T06:17:24;93919.13;;;2.11;90.82
6435;BME280;3250;42.694;23.278;2023-01-27T06:19:49;93912.25;;;2.03;90.85
6435;BME280;3250;42.694;23.278;2023-01-27T06:22:15;93917.88;;;2.07;90.27
6435;BME280;3250;42.694;23.278;2023-01-27T06:24:40;93914.50;;;2.06;90.68
6435;BME280;3250;42.694;23.278;2023-01-27T06:27:05;93923.50;;;2.10;89.35
6435;BME280;3250;42.694;23.278;2023-01-27T06:29:31;93924.31;;;2.11;89.93
6435;BME280;3250;42.694;23.278;2023-01-27T06:31:56;93931.66;;;2.07;89.54
6435;BME280;3250;42.694;23.278;2023-01-27T06:34:22;93910.91;;;1.93;89.54
6435;BME280;3250;42.694;23.278;2023-01-27T06:36:47;93928.88;;;2.09;89.62
6435;BME280;3250;42.694;23.278;2023-01-27T06:39:12;93925.75;;;2.13;90.28
6435;BME280;3250;42.694;23.278;2023-01-27T06:41:38;93922.16;;;2.14;90.33
6435;BME280;3250;42.694;23.278;2023-01-27T06:44:03;93930.75;;;2.15;89.50
6435;BME280;3250;42.694;23.278;2023-01-27T06:46:29;93931.47;;;2.09;89.71
6435;BME280;3250;42.694;23.278;2023-01-27T06:48:54;93933.72;;;2.12;90.00
6435;BME280;3250;42.694;23.278;2023-01-27T06:51:20;93927.19;;;2.16;90.24
6435;BME280;3250;42.694;23.278;2023-01-27T06:53:45;93937.00;;;2.20;89.54
6435;BME280;3250;42.694;23.278;2023-01-27T06:56:12;93941.56;;;2.18;89.94
6435;BME280;3250;42.694;23.278;2023-01-27T06:58:37;93942.00;;;2.22;89.83
6435;BME280;3250;42.694;23.278;2023-01-27T07:01:04;93932.50;;;2.29;89.52
6435;BME280;3250;42.694;23.278;2023-01-27T07:03:30;93933.94;;;2.32;89.66
6435;BME280;3250;42.694;23.278;2023-01-27T07:05:56;93944.16;;;2.33;89.13
6435;BME280;3250;42.694;23.278;2023-01-27T07:08:22;93943.94;;;2.35;89.55
6435;BME280;3250;42.694;23.278;2023-01-27T07:10:47;93940.41;;;2.42;89.32
6435;BME280;3250;42.694;23.278;2023-01-27T07:13:13;93953.06;;;2.45;89.36
6435;BME280;3250;42.694;23.278;2023-01-27T07:15:39;93944.38;;;2.38;88.79
6435;BME280;3250;42.694;23.278;2023-01-27T07:18:05;93943.81;;;2.43;89.34
6435;BME280;3250;42.694;23.278;2023-01-27T07:20:31;93939.44;;;2.43;89.10
6435;BME280;3250;42.694;23.278;2023-01-27T07:22:59;93941.91;;;2.51;89.11
6435;BME280;3250;42.694;23.278;2023-01-27T07:25:26;93948.13;;;2.50;88.90
6435;BME280;3250;42.694;23.278;2023-01-27T07:27:52;93937.75;;;2.50;88.59
6435;BME280;3250;42.694;23.278;2023-01-27T07:30:17;93932.53;;;2.50;88.56
6435;BME280;3250;42.694;23.278;2023-01-27T07:32:43;93938.22;;;2.60;88.24
6435;BME280;3250;42.694;23.278;2023-01-27T07:35:09;93939.66;;;2.63;87.93
6435;BME280;3250;42.694;23.278;2023-01-27T07:37:34;93943.69;;;2.65;87.46
6435;BME280;3250;42.694;23.278;2023-01-27T07:39:59;93939.28;;;2.66;87.29
6435;BME280;3250;42.694;23.278;2023-01-27T07:42:25;93949.91;;;2.71;87.46
6435;BME280;3250;42.694;23.278;2023-01-27T07:44:50;93950.53;;;2.73;87.14
6435;BME280;3250;42.694;23.278;2023-01-27T07:47:16;93947.59;;;2.76;87.24
6435;BME280;3250;42.694;23.278;2023-01-27T07:49:41;93943.97;;;2.77;87.13
6435;BME280;3250;42.694;23.278;2023-01-27T07:52:06;93952.56;;;2.78;86.94
6435;BME280;3250;42.694;23.278;2023-01-27T07:54:32;93946.03;;;2.82;86.56
6435;BME280;3250;42.694;23.278;2023-01-27T07:57:00;93938.59;;;2.79;85.83
6435;BME280;3250;42.694;23.278;2023-01-27T07:59:26;93937.38;;;2.75;85.85
6435;BME280;3250;42.694;23.278;2023-01-27T08:01:52;93957.53;;;2.73;85.38
6435;BME280;3250;42.694;23.278;2023-01-27T08:04:18;93954.56;;;2.76;85.99
6435;BME280;3250;42.694;23.278;2023-01-27T08:06:43;93945.41;;;2.80;85.50
6435;BME280;3250;42.694;23.278;2023-01-27T08:09:09;93944.22;;;2.82;85.70
6435;BME280;3250;42.694;23.278;2023-01-27T08:11:35;93945.44;;;2.86;86.12
6435;BME280;3250;42.694;23.278;2023-01-27T08:14:00;93935.94;;;2.93;85.56
6435;BME280;3250;42.694;23.278;2023-01-27T08:16:26;93945.00;;;3.04;85.51
6435;BME280;3250;42.694;23.278;2023-01-27T08:18:52;93944.88;;;3.12;85.03
6435;BME280;3250;42.694;23.278;2023-01-27T08:21:18;93948.69;;;3.10;84.42
6435;BME280;3250;42.694;23.278;2023-01-27T08:23:44;93938.50;;;3.15;84.91
6435;BME280;3250;42.694;23.278;2023-01-27T08:26:10;93939.34;;;3.22;85.86
6435;BME280;3250;42.694;23.278;2023-01-27T08:28:37;93952.44;;;3.28;85.76
6435;BME280;3250;42.694;23.278;2023-01-27T08:31:09;93964.47;;;3.36;84.73
6435;BME280;3250;42.694;23.278;2023-01-27T08:33:34;93965.63;;;3.27;83.37
6435;BME280;3250;42.694;23.278;2023-01-27T08:36:13;93954.16;;;3.21;83.00
6435;BME280;3250;42.694;23.278;2023-01-27T08:38:41;93966.91;;;3.16;82.56
6435;BME280;3250;42.694;23.278;2023-01-27T08:41:09;93966.78;;;3.03;82.90
6435;BME280;3250;42.694;23.278;2023-01-27T08:43:35;93966.75;;;2.96;82.81
6435;BME280;3250;42.694;23.278;2023-01-27T08:46:00;93968.94;;;2.93;83.30
6435;BME280;3250;42.694;23.278;2023-01-27T08:48:30;93968.13;;;2.92;84.16
6435;BME280;3250;42.694;23.278;2023-01-27T08:50:56;93965.53;;;2.92;84.30
6435;BME280;3250;42.694;23.278;2023-01-27T08:53:23;93958.75;;;2.98;84.17
6435;BME280;3250;42.694;23.278;2023-01-27T08:55:49;93958.94;;;2.96;83.86
6435;BME280;3250;42.694;23.278;2023-01-27T08:58:15;93964.00;;;3.04;83.66
6435;BME280;3250;42.694;23.278;2023-01-27T09:00:40;93970.81;;;3.06;83.45
6435;BME280;3250;42.694;23.278;2023-01-27T09:03:06;93971.63;;;3.06;83.23
6435;BME280;3250;42.694;23.278;2023-01-27T09:05:31;93972.88;;;3.10;84.02
6435;BME280;3250;42.694;23.278;2023-01-27T09:07:59;93963.69;;;3.14;83.32
6435;BME280;3250;42.694;23.278;2023-01-27T09:10:24;93952.69;;;3.12;83.32
6435;BME280;3250;42.694;23.278;2023-01-27T09:12:50;93962.09;;;3.13;83.41
6435;BME280;3250;42.694;23.278;2023-01-27T09:15:15;93953.03;;;3.02;83.20
6435;BME280;3250;42.694;23.278;2023-01-27T09:17:41;93953.44;;;3.06;83.32
6435;BME280;3250;42.694;23.278;2023-01-27T09:20:07;93955.19;;;2.99;83.73
6435;BME280;3250;42.694;23.278;2023-01-27T09:22:33;93967.59;;;3.03;83.49
6435;BME280;3250;42.694;23.278;2023-01-27T09:25:01;93961.84;;;3.08;83.87
6435;BME280;3250;42.694;23.278;2023-01-27T09:27:26;93950.34;;;3.17;83.74
6435;BME280;3250;42.694;23.278;2023-01-27T09:29:52;93949.53;;;3.17;83.31
6435;BME280;3250;42.694;23.278;2023-01-27T09:32:17;93949.34;;;3.18;83.57
6435;BME280;3250;42.694;23.278;2023-01-27T09:34:42;93939.53;;;3.20;83.85
6435;BME280;3250;42.694;23.278;2023-01-27T09:37:09;93936.94;;;3.20;84.28
6435;BME280;3250;42.694;23.278;2023-01-27T09:39:45;93937.00;;;3.27;84.06
6435;BME280;3250;42.694;23.278;2023-01-27T09:45:17;93936.09;;;3.13;83.46
6435;BME280;3250;42.694;23.278;2023-01-27T09:56:56;93918.84;;;3.06;84.87
6435;BME280;3250;42.694;23.278;2023-01-27T09:59:39;93912.28;;;3.10;84.56
6435;BME280;3250;42.694;23.278;2023-01-27T10:02:30;93902.47;;;3.12;84.63
6435;BME280;3250;42.694;23.278;2023-01-27T10:05:19;93905.28;;;3.10;84.75
6435;BME280;3250;42.694;23.278;2023-01-27T10:10:41;93900.31;;;3.15;84.54
6435;BME280;3250;42.694;23.278;2023-01-27T10:13:23;93895.72;;;3.17;84.60
6435;BME280;3250;42.694;23.278;2023-01-27T10:24:06;93892.28;;;2.82;85.28
6435;BME280;3250;42.694;23.278;2023-01-27T10:29:20;93894.91;;;2.89;85.66
6435;BME280;3250;42.694;23.278;2023-01-27T10:31:53;93892.41;;;2.74;85.80
6435;BME280;3250;42.694;23.278;2023-01-27T10:34:39;93890.47;;;2.83;85.75
6435;BME280;3250;42.694;23.278;2023-01-27T10:37:31;93887.47;;;2.86;85.50
6435;BME280;3250;42.694;23.278;2023-01-27T10:40:07;93884.28;;;2.84;85.51
6435;BME280;3250;42.694;23.278;2023-01-27T10:42:42;93892.63;;;2.79;85.35
6435;BME280;3250;42.694;23.278;2023-01-27T10:45:29;93898.63;;;2.80;85.77
6435;BME280;3250;42.694;23.278;2023-01-27T10:59:33;93890.66;;;2.81;84.51
6435;BME280;3250;42.694;23.278;2023-01-27T11:02:04;93889.84;;;2.81;84.90
6435;BME280;3250;42.694;23.278;2023-01-27T11:04:39;93884.66;;;2.81;84.91
6435;BME280;3250;42.694;23.278;2023-01-27T11:07:16;93889.84;;;2.81;85.24
6435;BME280;3250;42.694;23.278;2023-01-27T11:09:48;93894.56;;;2.71;84.79
6435;BME280;3250;42.694;23.278;2023-01-27T11:12:22;93886.81;;;2.77;85.30
6435;BME280;3250;42.694;23.278;2023-01-27T11:14:51;93882.69;;;2.83;84.86
6435;BME280;3250;42.694;23.278;2023-01-27T11:20:42;93887.13;;;2.89;84.46
6435;BME280;3250;42.694;23.278;2023-01-27T11:34:19;93869.69;;;2.83;84.34
6435;BME280;3250;42.694;23.278;2023-01-27T11:36:48;93857.31;;;2.85;84.74
6435;BME280;3250;42.694;23.278;2023-01-27T11:39:15;93858.91;;;2.86;84.59
6435;BME280;3250;42.694;23.278;2023-01-27T11:41:51;93858.34;;;2.90;84.78
6435;BME280;3250;42.694;23.278;2023-01-27T11:44:28;93863.38;;;2.92;84.88
6435;BME280;3250;42.694;23.278;2023-01-27T11:46:57;93862.38;;;2.93;84.34
6435;BME280;3250;42.694;23.278;2023-01-27T11:49:32;93865.38;;;2.96;84.56
6435;BME280;3250;42.694;23.278;2023-01-27T11:52:09;93860.38;;;2.95;84.53
6435;BME280;3250;42.694;23.278;2023-01-27T11:54:47;93860.44;;;3.01;83.98
6435;BME280;3250;42.694;23.278;2023-01-27T11:57:24;93856.22;;;3.00;83.78
6435;BME280;3250;42.694;23.278;2023-01-27T11:59:58;93856.59;;;2.97;84.04
6435;BME280;3250;42.694;23.278;2023-01-27T12:02:35;93859.00;;;2.99;84.19
6435;BME280;3250;42.694;23.278;2023-01-27T12:05:11;93852.19;;;2.98;84.32
6435;BME280;3250;42.694;23.278;2023-01-27T12:10:39;93852.56;;;2.95;84.16
6435;BME280;3250;42.694;23.278;2023-01-27T12:13:23;93857.19;;;2.93;84.96
6435;BME280;3250;42.694;23.278;2023-01-27T12:15:53;93860.00;;;2.98;84.88
6435;BME280;3250;42.694;23.278;2023-01-27T12:18:20;93853.59;;;2.94;84.89
6435;BME280;3250;42.694;23.278;2023-01-27T12:21:07;93855.66;;;3.05;84.41
6435;BME280;3250;42.694;23.278;2023-01-27T12:23:46;93854.91;;;3.11;84.53
6435;BME280;3250;42.694;23.278;2023-01-27T12:26:14;93855.69;;;3.12;84.42
6435;BME280;3250;42.694;23.278;2023-01-27T12:28:50;93858.53;;;3.17;84.13
6435;BME280;3250;42.694;23.278;2023-01-27T12:31:28;93861.16;;;3.23;83.87
6435;BME280;3250;42.694;23.278;2023-01-27T12:34:01;93859.19;;;3.25;83.63
6435;BME280;3250;42.694;23.278;2023-01-27T12:36:27;93857.41;;;3.26;83.55
6435;BME280;3250;42.694;23.278;2023-01-27T12:39:00;93859.81;;;3.27;83.42
6435;BME280;3250;42.694;23.278;2023-01-27T12:41:28;93857.22;;;3.27;82.98
6435;BME280;3250;42.694;23.278;2023-01-27T12:44:06;93864.22;;;3.33;83.54
6435;BME280;3250;42.694;23.278;2023-01-27T12:46:32;93861.84;;;3.38;82.65
6435;BME280;3250;42.694;23.278;2023-01-27T12:49:12;93860.06;;;3.39;82.72
6435;BME280;3250;42.694;23.278;2023-01-27T12:51:41;93861.47;;;3.41;82.62
6435;BME280;3250;42.694;23.278;2023-01-27T12:54:24;93861.41;;;3.28;82.16
6435;BME280;3250;42.694;23.278;2023-01-27T12:56:53;93862.59;;;3.26;83.04
6435;BME280;3250;42.694;23.278;2023-01-27T12:59:20;93862.13;;;3.16;82.88
6435;BME280;3250;42.694;23.278;2023-01-27T13:04:25;93846.91;;;2.85;84.60
6435;BME280;3250;42.694;23.278;2023-01-27T13:06:55;93858.03;;;3.00;84.84
6435;BME280;3250;42.694;23.278;2023-01-27T13:12:15;93849.09;;;3.09;84.83
6435;BME280;3250;42.694;23.278;2023-01-27T13:14:49;93861.28;;;3.09;84.34
6435;BME280;3250;42.694;23.278;2023-01-27T13:17:29;93860.63;;;3.00;84.87
6435;BME280;3250;42.694;23.278;2023-01-27T13:19:58;93854.81;;;2.98;85.34
6435;BME280;3250;42.694;23.278;2023-01-27T13:22:25;93859.91;;;3.13;85.52
6435;BME280;3250;42.694;23.278;2023-01-27T13:24:58;93857.09;;;3.14;85.50
6435;BME280;3250;42.694;23.278;2023-01-27T13:27:30;93847.53;;;3.21;85.55
6435;BME280;3250;42.694;23.278;2023-01-27T13:30:08;93861.19;;;3.30;84.91
6435;BME280;3250;42.694;23.278;2023-01-27T13:32:38;93865.84;;;3.34;85.08
6435;BME280;3250;42.694;23.278;2023-01-27T13:38:17;93865.81;;;3.28;84.42
6435;BME280;3250;42.694;23.278;2023-01-27T13:40:45;93859.00;;;3.27;84.24
6435;BME280;3250;42.694;23.278;2023-01-27T13:43:19;93866.94;;;3.19;84.37
6435;BME280;3250;42.694;23.278;2023-01-27T13:46:16;93863.91;;;3.15;84.31
6435;BME280;3250;42.694;23.278;2023-01-27T13:48:53;93869.47;;;3.12;84.70
6435;BME280;3250;42.694;23.278;2023-01-27T13:51:22;93867.69;;;3.13;84.66
6435;BME280;3250;42.694;23.278;2023-01-27T13:53:57;93866.47;;;3.09;85.17
6435;BME280;3250;42.694;23.278;2023-01-27T13:56:56;93866.28;;;3.10;84.98
6435;BME280;3250;42.694;23.278;2023-01-27T13:59:36;93870.84;;;3.01;85.20
6435;BME280;3250;42.694;23.278;2023-01-27T14:13:27;93883.06;;;3.08;85.22
6435;BME280;3250;42.694;23.278;2023-01-27T14:16:24;93879.88;;;3.12;84.69
6435;BME280;3250;42.694;23.278;2023-01-27T14:18:50;93882.44;;;3.06;84.90
6435;BME280;3250;42.694;23.278;2023-01-27T14:21:42;93876.44;;;3.05;85.20
6435;BME280;3250;42.694;23.278;2023-01-27T14:35:06;93894.78;;;2.97;85.07
6435;BME280;3250;42.694;23.278;2023-01-27T14:37:48;93900.97;;;2.96;84.88
6435;BME280;3250;42.694;23.278;2023-01-27T14:40:22;93899.59;;;3.00;85.43
6435;BME280;3250;42.694;23.278;2023-01-27T14:49:01;93904.66;;;3.08;84.40
6435;BME280;3250;42.694;23.278;2023-01-27T14:51:44;93907.44;;;3.07;83.79
6435;BME280;3250;42.694;23.278;2023-01-27T14:54:40;93912.22;;;3.03;84.47
6435;BME280;3250;42.694;23.278;2023-01-27T15:05:46;93917.88;;;2.85;84.25
6435;BME280;3250;42.694;23.278;2023-01-27T15:08:43;93933.34;;;2.93;84.30
6435;BME280;3250;42.694;23.278;2023-01-27T15:11:39;93935.88;;;2.87;84.63
6435;BME280;3250;42.694;23.278;2023-01-27T15:19:30;93936.66;;;2.87;84.71
6435;BME280;3250;42.694;23.278;2023-01-27T15:25:29;93943.56;;;2.74;85.59
6435;BME280;3250;42.694;23.278;2023-01-27T15:27:34;93943.72;;;2.72;86.10
6435;BME280;3250;42.694;23.278;2023-01-27T15:30:28;93949.97;;;2.78;86.04
6435;BME280;3250;42.694;23.278;2023-01-27T15:32:52;93952.84;;;2.83;85.13
6435;BME280;3250;42.694;23.278;2023-01-27T15:38:13;93947.00;;;2.81;85.59
6435;BME280;3250;42.694;23.278;2023-01-27T15:40:59;93941.88;;;2.87;85.01
6435;BME280;3250;42.694;23.278;2023-01-27T15:43:28;93950.47;;;2.88;84.96
6435;BME280;3250;42.694;23.278;2023-01-27T15:45:55;93948.84;;;2.87;84.29